Time;durP1;ratioP1;P1;durP2;ratioP2;P2;SDS_P1;SDS_P2;PMS_P1;PMS_P2;Temp;Humidity;BMP_temperature;BMP_pressure;BME280_temperature;BME280_humidity;BME280_pressure;Samples;Min_cycle;Max_cycle;Signal;HPM_P1;HPM_P2
2023/09/12 00:00:46;;;;;;;9.35;5.25;;;;;;;;;;4992656;28;20045;-69
2023/09/12 00:03:11;;;;;;;11.02;6.05;;;;;;;;;;4991188;28;20034;-69
2023/09/12 00:05:37;;;;;;;12.60;5.55;;;;;;;;;;4999587;28;20057;-69
2023/09/12 00:08:03;;;;;;;11.15;5.38;;;;;;;;;;4999623;28;20052;-69
2023/09/12 00:10:29;;;;;;;9.18;5.80;;;;;;;;;;4993440;28;20527;-69
2023/09/12 00:12:55;;;;;;;8.40;5.35;;;;;;;;;;4990927;28;20034;-69
2023/09/12 00:15:20;;;;;;;11.20;5.95;;;;;;;;;;4998308;28;20050;-69
2023/09/12 00:17:48;;;;;;;9.93;5.68;;;;;;;;;;4998757;28;20029;-69
2023/09/12 00:20:14;;;;;;;11.73;6.22;;;;;;;;;;5000860;28;20109;-69
2023/09/12 00:22:39;;;;;;;11.25;5.35;;;;;;;;;;4999442;28;20125;-69
2023/09/12 00:25:05;;;;;;;13.93;6.45;;;;;;;;;;4988550;28;20041;-69
2023/09/12 00:27:30;;;;;;;12.23;6.40;;;;;;;;;;4998633;28;20129;-69
2023/09/12 00:29:55;;;;;;;12.13;6.80;;;;;;;;;;4988375;28;20026;-69
2023/09/12 00:32:21;;;;;;;13.13;6.88;;;;;;;;;;4996021;28;20480;-69
2023/09/12 00:34:46;;;;;;;9.60;6.22;;;;;;;;;;4992265;28;20586;-69
2023/09/12 00:37:11;;;;;;;13.60;6.65;;;;;;;;;;4994906;28;20569;-69
2023/09/12 00:39:37;;;;;;;13.20;7.10;;;;;;;;;;4984007;28;20047;-69
2023/09/12 00:42:02;;;;;;;16.65;7.50;;;;;;;;;;4980015;28;20113;-69
2023/09/12 00:44:28;;;;;;;19.42;7.35;;;;;;;;;;4987484;28;20023;-69
2023/09/12 00:46:54;;;;;;;12.20;6.57;;;;;;;;;;4979417;28;20125;-69
2023/09/12 00:49:22;;;;;;;12.05;6.53;;;;;;;;;;4975168;28;20035;-69
2023/09/12 00:51:49;;;;;;;13.15;7.35;;;;;;;;;;4984891;28;20030;-69
2023/09/12 00:54:15;;;;;;;12.98;7.07;;;;;;;;;;4986427;28;20045;-69
2023/09/12 00:56:40;;;;;;;15.70;7.60;;;;;;;;;;4986540;28;20038;-69
2023/09/12 00:59:06;;;;;;;13.52;7.10;;;;;;;;;;5005912;28;20027;-69
2023/09/12 01:01:32;;;;;;;17.05;7.93;;;;;;;;;;4996919;28;20072;-69
2023/09/12 01:03:57;;;;;;;16.45;8.45;;;;;;;;;;4988398;28;20483;-69
2023/09/12 01:06:26;;;;;;;15.05;8.23;;;;;;;;;;4997012;28;20121;-69
2023/09/12 01:08:52;;;;;;;15.20;7.28;;;;;;;;;;4992415;28;20029;-69
2023/09/12 01:11:17;;;;;;;12.02;7.13;;;;;;;;;;4993999;28;20026;-69
2023/09/12 01:13:43;;;;;;;15.15;8.13;;;;;;;;;;4990657;28;20026;-69
2023/09/12 01:16:08;;;;;;;16.42;9.48;;;;;;;;;;4998611;28;20089;-69
2023/09/12 01:18:34;;;;;;;23.95;11.20;;;;;;;;;;4997088;28;20045;-69
2023/09/12 01:21:21;;;;;;;20.77;10.60;;;;;;;;;;4978883;28;20779;-69
2023/09/12 01:24:12;;;;;;;16.10;8.40;;;;;;;;;;5002375;28;20488;-69
2023/09/12 01:26:55;;;;;;;25.20;9.30;;;;;;;;;;4999805;28;20480;-69
2023/09/12 01:29:22;;;;;;;18.23;9.68;;;;;;;;;;4983901;28;20025;-69
2023/09/12 01:31:49;;;;;;;17.08;8.48;;;;;;;;;;4995319;28;20046;-69
2023/09/12 01:34:14;;;;;;;15.75;8.77;;;;;;;;;;5001529;28;20125;-69
2023/09/12 01:36:40;;;;;;;19.30;10.13;;;;;;;;;;5001604;28;20129;-69
2023/09/12 01:39:06;;;;;;;20.35;10.52;;;;;;;;;;4996400;28;20115;-69
2023/09/12 01:41:36;;;;;;;18.98;9.68;;;;;;;;;;4995383;28;20026;-69
2023/09/12 01:44:03;;;;;;;23.33;11.02;;;;;;;;;;4999790;28;20601;-69
2023/09/12 01:46:30;;;;;;;20.63;9.95;;;;;;;;;;4980976;28;20470;-69
2023/09/12 01:48:58;;;;;;;19.30;8.98;;;;;;;;;;4983387;28;20124;-69
2023/09/12 01:51:24;;;;;;;21.52;10.30;;;;;;;;;;4995109;28;20074;-69
2023/09/12 01:53:50;;;;;;;19.52;9.23;;;;;;;;;;5003578;28;20022;-69
2023/09/12 01:56:18;;;;;;;22.23;10.90;;;;;;;;;;4993853;28;20567;-69
2023/09/12 01:58:43;;;;;;;22.40;10.52;;;;;;;;;;4999383;28;20042;-69
2023/09/12 02:01:09;;;;;;;22.60;11.32;;;;;;;;;;5001413;28;20404;-69
2023/09/12 02:03:34;;;;;;;24.75;11.07;;;;;;;;;;4996192;28;20037;-69
2023/09/12 02:06:00;;;;;;;23.98;11.43;;;;;;;;;;4994443;28;20423;-69
2023/09/12 02:08:25;;;;;;;24.50;10.77;;;;;;;;;;5000559;28;20133;-69
2023/09/12 02:10:50;;;;;;;26.02;10.82;;;;;;;;;;4997710;28;20038;-69
2023/09/12 02:13:16;;;;;;;24.38;10.65;;;;;;;;;;5006724;28;20030;-69
2023/09/12 02:15:41;;;;;;;25.17;11.38;;;;;;;;;;4994778;28;20045;-69
2023/09/12 02:18:06;;;;;;;29.05;12.77;;;;;;;;;;4999708;28;20042;-69
2023/09/12 02:20:32;;;;;;;26.58;10.98;;;;;;;;;;5001563;28;20026;-69
2023/09/12 02:22:57;;;;;;;25.88;10.98;;;;;;;;;;4998517;28;20589;-69
2023/09/12 02:25:23;;;;;;;25.17;11.60;;;;;;;;;;5000106;28;20896;-69
2023/09/12 02:27:48;;;;;;;25.88;10.57;;;;;;;;;;5007861;28;20094;-69
2023/09/12 02:30:13;;;;;;;20.15;9.93;;;;;;;;;;5005121;28;20128;-69
2023/09/12 02:32:41;;;;;;;23.23;10.18;;;;;;;;;;4996831;28;20036;-69
2023/09/12 02:35:07;;;;;;;20.27;10.07;;;;;;;;;;5001607;28;20076;-69
2023/09/12 02:37:32;;;;;;;24.05;11.32;;;;;;;;;;4998185;28;20030;-69
2023/09/12 02:39:58;;;;;;;19.73;10.05;;;;;;;;;;4994267;28;20084;-69
2023/09/12 02:42:24;;;;;;;22.45;11.45;;;;;;;;;;4995915;28;20100;-69
2023/09/12 02:44:49;;;;;;;23.50;10.20;;;;;;;;;;5000446;28;20113;-69
2023/09/12 02:47:15;;;;;;;25.77;10.38;;;;;;;;;;4993383;28;20466;-69
2023/09/12 02:49:40;;;;;;;21.17;10.77;;;;;;;;;;5000545;28;20041;-69
2023/09/12 02:52:05;;;;;;;23.25;10.65;;;;;;;;;;4994016;28;20104;-69
2023/09/12 02:54:31;;;;;;;25.30;11.90;;;;;;;;;;5002963;28;20041;-69
2023/09/12 02:56:56;;;;;;;26.20;11.20;;;;;;;;;;5002317;28;20045;-69
2023/09/12 02:59:21;;;;;;;24.10;10.70;;;;;;;;;;5000451;28;20032;-69
2023/09/12 03:01:47;;;;;;;22.63;10.85;;;;;;;;;;4993866;28;20709;-69
2023/09/12 03:04:12;;;;;;;22.80;11.05;;;;;;;;;;4993786;28;20050;-69
2023/09/12 03:06:37;;;;;;;23.92;11.23;;;;;;;;;;5002089;28;20527;-69
2023/09/12 03:09:03;;;;;;;22.23;11.05;;;;;;;;;;5000017;28;20033;-69
2023/09/12 03:11:29;;;;;;;28.25;12.60;;;;;;;;;;5000930;28;20037;-69
2023/09/12 03:13:55;;;;;;;26.88;11.55;;;;;;;;;;5000057;28;20034;-69
2023/09/12 03:16:21;;;;;;;29.05;11.70;;;;;;;;;;4994583;28;20196;-69
2023/09/12 03:18:46;;;;;;;24.25;10.60;;;;;;;;;;4993004;28;20054;-69
2023/09/12 03:21:11;;;;;;;20.88;10.38;;;;;;;;;;4998419;28;20049;-69
2023/09/12 03:23:37;;;;;;;21.98;10.32;;;;;;;;;;5000164;28;20407;-69
2023/09/12 03:26:03;;;;;;;22.45;10.32;;;;;;;;;;4984810;28;20022;-69
2023/09/12 03:28:29;;;;;;;27.92;10.10;;;;;;;;;;4993509;28;20046;-69
2023/09/12 03:31:04;;;;;;;22.88;10.15;;;;;;;;;;4997863;28;20104;-69
2023/09/12 03:33:29;;;;;;;22.92;11.10;;;;;;;;;;4999474;28;20519;-69
2023/09/12 03:35:55;;;;;;;21.02;10.57;;;;;;;;;;4997289;28;20053;-69
2023/09/12 03:38:20;;;;;;;22.33;10.98;;;;;;;;;;4993666;28;20450;-69
2023/09/12 03:40:45;;;;;;;25.85;11.70;;;;;;;;;;4994906;28;20241;-69
2023/09/12 03:43:11;;;;;;;26.63;11.30;;;;;;;;;;4999009;28;20109;-69
2023/09/12 03:45:37;;;;;;;27.02;10.65;;;;;;;;;;4997682;28;20038;-69
2023/09/12 03:48:03;;;;;;;26.52;11.48;;;;;;;;;;4988558;28;20153;-69
2023/09/12 03:50:28;;;;;;;27.92;10.52;;;;;;;;;;4999220;28;20230;-69
2023/09/12 03:52:53;;;;;;;20.95;10.77;;;;;;;;;;4999217;28;20034;-69
2023/09/12 03:55:19;;;;;;;22.60;11.63;;;;;;;;;;5006969;28;20058;-69
2023/09/12 03:57:44;;;;;;;22.05;10.48;;;;;;;;;;5002846;28;20053;-69
2023/09/12 04:00:10;;;;;;;22.83;10.65;;;;;;;;;;4994022;28;20092;-69
2023/09/12 04:02:35;;;;;;;22.10;10.73;;;;;;;;;;4993215;28;20040;-69
2023/09/12 04:05:01;;;;;;;21.13;10.77;;;;;;;;;;4999097;28;20049;-69
2023/09/12 04:07:26;;;;;;;23.05;11.27;;;;;;;;;;4999224;28;20033;-69
2023/09/12 04:09:51;;;;;;;22.85;10.30;;;;;;;;;;4978894;28;20057;-69
2023/09/12 04:12:17;;;;;;;21.60;10.00;;;;;;;;;;4990765;28;20038;-69
2023/09/12 04:14:42;;;;;;;20.33;9.48;;;;;;;;;;4997268;28;20077;-69
2023/09/12 04:17:08;;;;;;;22.90;9.30;;;;;;;;;;4999609;28;20026;-69
2023/09/12 04:19:33;;;;;;;18.77;9.80;;;;;;;;;;4992716;28;20084;-69
2023/09/12 04:21:59;;;;;;;26.48;10.32;;;;;;;;;;4992396;28;20118;-69
2023/09/12 04:24:25;;;;;;;21.98;9.68;;;;;;;;;;4997463;28;20065;-69
2023/09/12 04:26:50;;;;;;;21.92;10.02;;;;;;;;;;4999202;28;20054;-69
2023/09/12 04:29:15;;;;;;;23.83;10.52;;;;;;;;;;4993810;28;20037;-69
2023/09/12 04:31:41;;;;;;;24.88;11.07;;;;;;;;;;4992838;28;20531;-69
2023/09/12 04:34:06;;;;;;;25.20;11.13;;;;;;;;;;4996635;28;20670;-69
2023/09/12 04:36:32;;;;;;;22.05;10.38;;;;;;;;;;4998554;28;20462;-68
2023/09/12 04:38:57;;;;;;;25.13;10.38;;;;;;;;;;4995251;28;20103;-69
2023/09/12 04:41:23;;;;;;;25.70;11.18;;;;;;;;;;4992475;28;20041;-69
2023/09/12 04:43:48;;;;;;;23.70;11.10;;;;;;;;;;5000392;28;20049;-69
2023/09/12 04:46:14;;;;;;;25.33;10.63;;;;;;;;;;4991882;28;20450;-69
2023/09/12 04:48:39;;;;;;;23.50;10.50;;;;;;;;;;4992005;28;20080;-69
2023/09/12 04:51:05;;;;;;;25.63;10.77;;;;;;;;;;4994075;28;20065;-69
2023/09/12 04:53:34;;;;;;;24.85;10.88;;;;;;;;;;5001444;28;20066;-69
2023/09/12 04:56:01;;;;;;;26.58;10.10;;;;;;;;;;4997004;28;20107;-69
2023/09/12 04:58:26;;;;;;;25.15;10.63;;;;;;;;;;5002411;28;20045;-69
2023/09/12 05:00:51;;;;;;;25.38;11.57;;;;;;;;;;5000143;28;20034;-69
2023/09/12 05:03:17;;;;;;;23.58;11.15;;;;;;;;;;4995762;28;20056;-69
2023/09/12 05:05:45;;;;;;;25.80;11.43;;;;;;;;;;4997533;28;20054;-69
2023/09/12 05:08:10;;;;;;;29.45;11.55;;;;;;;;;;5004868;28;20077;-69
2023/09/12 05:10:38;;;;;;;24.30;11.27;;;;;;;;;;5002131;28;20073;-69
2023/09/12 05:13:04;;;;;;;21.05;10.52;;;;;;;;;;4983295;28;20037;-69
2023/09/12 05:15:29;;;;;;;24.92;10.27;;;;;;;;;;4995333;28;20113;-69
2023/09/12 05:17:54;;;;;;;22.25;10.43;;;;;;;;;;5002406;28;20129;-69
2023/09/12 05:20:20;;;;;;;27.85;10.73;;;;;;;;;;5003382;28;20555;-69
2023/09/12 05:22:45;;;;;;;27.55;9.70;;;;;;;;;;5001253;28;20418;-69
2023/09/12 05:25:10;;;;;;;24.52;10.65;;;;;;;;;;5005995;28;20038;-69
2023/09/12 05:27:36;;;;;;;24.35;9.95;;;;;;;;;;5000664;28;20042;-69
2023/09/12 05:30:02;;;;;;;19.80;9.13;;;;;;;;;;5002118;28;20044;-69
2023/09/12 05:32:27;;;;;;;23.60;10.48;;;;;;;;;;4997669;28;20037;-69
2023/09/12 05:34:52;;;;;;;20.95;10.00;;;;;;;;;;4995851;28;20073;-69
2023/09/12 05:37:18;;;;;;;24.52;9.52;;;;;;;;;;4999300;28;20146;-69
2023/09/12 05:39:44;;;;;;;33.97;11.23;;;;;;;;;;5000962;28;20141;-69
2023/09/12 05:42:09;;;;;;;31.50;11.85;;;;;;;;;;5003256;28;20177;-69
2023/09/12 05:44:34;;;;;;;22.80;9.98;;;;;;;;;;5001670;28;20037;-69
2023/09/12 05:47:00;;;;;;;23.20;10.10;;;;;;;;;;4993586;28;20026;-69
2023/09/12 05:49:25;;;;;;;23.40;10.60;;;;;;;;;;4999456;28;20526;-69
2023/09/12 05:51:51;;;;;;;26.83;10.57;;;;;;;;;;4985080;28;20038;-69
2023/09/12 05:54:16;;;;;;;24.88;10.52;;;;;;;;;;4974466;28;20727;-69
2023/09/12 05:56:42;;;;;;;19.08;9.90;;;;;;;;;;4968663;28;20393;-69
2023/09/12 05:59:07;;;;;;;24.30;10.25;;;;;;;;;;4976861;28;20057;-69
2023/09/12 06:01:33;;;;;;;16.52;9.48;;;;;;;;;;4983752;28;20045;-69
2023/09/12 06:03:58;;;;;;;27.83;11.25;;;;;;;;;;5005521;28;20057;-69
2023/09/12 06:06:23;;;;;;;24.08;11.15;;;;;;;;;;4993951;28;20042;-69
2023/09/12 06:08:49;;;;;;;23.27;10.45;;;;;;;;;;4999823;28;20032;-69
2023/09/12 06:11:14;;;;;;;25.25;11.00;;;;;;;;;;4994452;28;20061;-69
2023/09/12 06:13:39;;;;;;;23.35;10.43;;;;;;;;;;4989023;28;20632;-69
2023/09/12 06:16:05;;;;;;;26.02;11.27;;;;;;;;;;4998759;28;20042;-69
2023/09/12 06:18:31;;;;;;;29.05;12.05;;;;;;;;;;5010858;28;20153;-69
2023/09/12 06:20:58;;;;;;;41.42;12.38;;;;;;;;;;4986775;28;20047;-69
2023/09/12 06:23:24;;;;;;;30.50;11.52;;;;;;;;;;4986121;28;20187;-69
2023/09/12 06:25:49;;;;;;;26.75;11.05;;;;;;;;;;4982391;28;20247;-69
2023/09/12 06:28:28;;;;;;;22.60;11.15;;;;;;;;;;4990439;28;20077;-69
2023/09/12 06:30:53;;;;;;;25.00;10.88;;;;;;;;;;4979080;28;20124;-69
2023/09/12 06:33:19;;;;;;;26.52;11.55;;;;;;;;;;4973540;28;20958;-69
2023/09/12 06:35:48;;;;;;;26.58;12.05;;;;;;;;;;4977601;28;20035;-69
2023/09/12 06:38:14;;;;;;;26.40;12.27;;;;;;;;;;4988100;28;20603;-69
2023/09/12 06:40:39;;;;;;;26.48;12.38;;;;;;;;;;4996339;28;20058;-69
2023/09/12 06:43:04;;;;;;;31.67;13.43;;;;;;;;;;4999770;28;20038;-68
2023/09/12 06:45:32;;;;;;;29.02;13.48;;;;;;;;;;4996624;28;20059;-69
2023/09/12 06:47:58;;;;;;;35.08;14.27;;;;;;;;;;4990098;28;20042;-69
2023/09/12 06:50:23;;;;;;;30.73;12.85;;;;;;;;;;4993424;28;20113;-69
2023/09/12 06:52:48;;;;;;;36.53;13.18;;;;;;;;;;4995268;28;20053;-69
2023/09/12 06:55:14;;;;;;;37.55;13.98;;;;;;;;;;5003675;28;20070;-69
2023/09/12 06:57:40;;;;;;;34.28;14.20;;;;;;;;;;4991909;28;20053;-69
2023/09/12 07:00:09;;;;;;;36.28;15.48;;;;;;;;;;4997137;28;20042;-69
2023/09/12 07:02:34;;;;;;;39.67;14.82;;;;;;;;;;4994691;28;20053;-69
2023/09/12 07:04:59;;;;;;;36.53;14.98;;;;;;;;;;4992421;28;20112;-69
2023/09/12 07:07:25;;;;;;;31.55;14.23;;;;;;;;;;4981240;28;20105;-69
2023/09/12 07:09:50;;;;;;;31.95;14.20;;;;;;;;;;4977545;28;20050;-69
2023/09/12 07:12:17;;;;;;;29.60;14.07;;;;;;;;;;4977309;28;20069;-69
2023/09/12 07:14:42;;;;;;;36.45;15.15;;;;;;;;;;4982103;28;20030;-69
2023/09/12 07:17:07;;;;;;;37.17;14.57;;;;;;;;;;4998632;28;20399;-69
2023/09/12 07:19:33;;;;;;;32.47;14.82;;;;;;;;;;4991457;28;20038;-69
2023/09/12 07:21:58;;;;;;;34.65;14.57;;;;;;;;;;4993683;28;20504;-69
2023/09/12 07:24:27;;;;;;;34.03;14.68;;;;;;;;;;4999288;28;20420;-69
2023/09/12 07:26:52;;;;;;;29.63;14.10;;;;;;;;;;4999620;28;20121;-68
2023/09/12 07:29:18;;;;;;;33.45;14.93;;;;;;;;;;4995807;28;20113;-69
2023/09/12 07:31:43;;;;;;;32.80;13.52;;;;;;;;;;4992976;28;20511;-68
2023/09/12 07:34:09;;;;;;;33.22;13.88;;;;;;;;;;4997950;28;20064;-68
2023/09/12 07:36:36;;;;;;;36.25;14.25;;;;;;;;;;4993757;28;20050;-70
2023/09/12 07:39:01;;;;;;;27.45;13.15;;;;;;;;;;4998074;28;20037;-69
2023/09/12 07:41:27;;;;;;;29.67;13.25;;;;;;;;;;4999872;28;20026;-70
2023/09/12 07:43:52;;;;;;;27.65;11.85;;;;;;;;;;5001378;28;20041;-70
2023/09/12 07:46:18;;;;;;;30.98;14.02;;;;;;;;;;4999599;28;20049;-70
2023/09/12 07:48:43;;;;;;;30.38;13.25;;;;;;;;;;4991315;28;20053;-70
2023/09/12 07:51:17;;;;;;;28.75;13.57;;;;;;;;;;4994088;28;20079;-70
2023/09/12 07:53:43;;;;;;;33.90;14.90;;;;;;;;;;5002545;28;20060;-69
2023/09/12 07:56:10;;;;;;;27.88;12.93;;;;;;;;;;4992464;28;20602;-70
2023/09/12 07:58:35;;;;;;;29.08;12.63;;;;;;;;;;4999664;28;20061;-70
2023/09/12 08:01:06;;;;;;;28.20;13.00;;;;;;;;;;4999371;28;20108;-69
2023/09/12 08:03:32;;;;;;;29.70;13.38;;;;;;;;;;4990359;28;20066;-70
2023/09/12 08:05:58;;;;;;;29.63;12.02;;;;;;;;;;4986309;28;20897;-69
2023/09/12 08:08:23;;;;;;;23.52;11.77;;;;;;;;;;4987865;28;20026;-69
2023/09/12 08:10:49;;;;;;;29.65;12.93;;;;;;;;;;4993403;28;20053;-69
2023/09/12 08:13:14;;;;;;;26.58;12.13;;;;;;;;;;4985898;28;20507;-68
2023/09/12 08:15:40;;;;;;;26.92;12.73;;;;;;;;;;4984113;28;20444;-70
2023/09/12 08:18:05;;;;;;;27.77;12.32;;;;;;;;;;4985301;28;20089;-69
2023/09/12 08:20:30;;;;;;;27.73;12.48;;;;;;;;;;4984872;28;20033;-68
2023/09/12 08:22:56;;;;;;;25.45;12.68;;;;;;;;;;4997902;28;20106;-69
2023/09/12 08:25:21;;;;;;;28.38;12.48;;;;;;;;;;4986772;28;20038;-69
2023/09/12 08:27:46;;;;;;;24.67;11.85;;;;;;;;;;4997497;28;20527;-69
2023/09/12 08:30:12;;;;;;;24.65;11.38;;;;;;;;;;5002783;28;20058;-70
2023/09/12 08:32:39;;;;;;;22.35;11.50;;;;;;;;;;4996659;28;20033;-69
2023/09/12 08:35:06;;;;;;;24.42;10.77;;;;;;;;;;4999994;28;20318;-69
2023/09/12 08:37:32;;;;;;;27.10;12.05;;;;;;;;;;5001725;28;20038;-69
2023/09/12 08:39:59;;;;;;;22.92;11.20;;;;;;;;;;4998430;28;20051;-69
2023/09/12 08:42:28;;;;;;;22.42;10.73;;;;;;;;;;4995090;28;20037;-69
2023/09/12 08:44:53;;;;;;;20.38;10.35;;;;;;;;;;4992538;28;20033;-69
2023/09/12 08:47:22;;;;;;;23.30;11.45;;;;;;;;;;4991271;28;20576;-69
2023/09/12 08:49:48;;;;;;;22.95;11.13;;;;;;;;;;4999190;28;20072;-69
2023/09/12 08:52:13;;;;;;;22.13;11.52;;;;;;;;;;4993931;28;20408;-69
2023/09/12 08:54:38;;;;;;;25.20;11.57;;;;;;;;;;5000759;28;20442;-69
2023/09/12 08:57:05;;;;;;;22.30;11.23;;;;;;;;;;4986523;28;20039;-69
2023/09/12 08:59:34;;;;;;;26.17;11.68;;;;;;;;;;4999610;28;20041;-69
2023/09/12 09:02:01;;;;;;;23.20;11.95;;;;;;;;;;4993552;28;20041;-69
2023/09/12 09:04:31;;;;;;;25.45;11.63;;;;;;;;;;4988867;28;20040;-68
2023/09/12 09:06:59;;;;;;;21.77;10.88;;;;;;;;;;4990998;28;20089;-69
2023/09/12 09:09:24;;;;;;;20.88;10.52;;;;;;;;;;4995327;28;20053;-69
2023/09/12 09:11:50;;;;;;;19.73;9.85;;;;;;;;;;4995339;28;20034;-68
2023/09/12 09:14:15;;;;;;;17.98;9.00;;;;;;;;;;4991755;28;20061;-67
2023/09/12 09:16:41;;;;;;;20.35;8.70;;;;;;;;;;4995535;28;20038;-69
2023/09/12 09:19:09;;;;;;;16.95;9.23;;;;;;;;;;4992865;28;20038;-69
2023/09/12 09:21:36;;;;;;;20.58;9.07;;;;;;;;;;4994404;28;20057;-69
2023/09/12 09:24:06;;;;;;;20.60;10.07;;;;;;;;;;5001140;28;20035;-69
2023/09/12 09:26:42;;;;;;;18.38;9.55;;;;;;;;;;4997512;28;20022;-69
2023/09/12 09:29:17;;;;;;;16.98;8.63;;;;;;;;;;4992986;28;20100;-69
2023/09/12 09:31:45;;;;;;;15.07;8.02;;;;;;;;;;4992358;28;20043;-69
2023/09/12 09:34:15;;;;;;;20.00;10.75;;;;;;;;;;4995560;28;20576;-69
2023/09/12 09:36:44;;;;;;;21.75;10.18;;;;;;;;;;4999066;28;20050;-69
2023/09/12 09:39:10;;;;;;;21.40;9.75;;;;;;;;;;4995558;28;20088;-69
2023/09/12 09:41:37;;;;;;;20.05;10.07;;;;;;;;;;4993761;28;20431;-69
2023/09/12 09:44:05;;;;;;;20.88;10.25;;;;;;;;;;4999905;28;20030;-69
2023/09/12 09:46:31;;;;;;;19.58;10.10;;;;;;;;;;4993549;28;20034;-70
2023/09/12 09:48:58;;;;;;;18.92;9.15;;;;;;;;;;4998108;28;20137;-69
2023/09/12 09:51:25;;;;;;;15.40;7.28;;;;;;;;;;5002230;28;20042;-69
2023/09/12 09:53:57;;;;;;;17.63;8.65;;;;;;;;;;5005825;28;20088;-69
2023/09/12 09:56:23;;;;;;;17.98;8.57;;;;;;;;;;4993521;28;20022;-69
2023/09/12 09:58:52;;;;;;;13.50;7.22;;;;;;;;;;4998350;28;20053;-69
2023/09/12 10:01:19;;;;;;;14.20;7.78;;;;;;;;;;4985807;28;20081;-69
2023/09/12 10:03:50;;;;;;;17.80;9.65;;;;;;;;;;4989282;28;20046;-69
2023/09/12 10:06:19;;;;;;;17.40;8.95;;;;;;;;;;4997260;28;20058;-68
2023/09/12 10:08:50;;;;;;;13.57;7.18;;;;;;;;;;4996495;28;20503;-69
2023/09/12 10:11:17;;;;;;;19.58;8.48;;;;;;;;;;4988269;28;20038;-69
2023/09/12 10:14:05;;;;;;;18.15;8.30;;;;;;;;;;4994208;28;20046;-69
2023/09/12 10:16:33;;;;;;;15.15;8.25;;;;;;;;;;4983336;28;20077;-70
2023/09/12 10:19:10;;;;;;;17.40;9.10;;;;;;;;;;4990110;28;20121;-70
2023/09/12 10:21:36;;;;;;;22.20;9.45;;;;;;;;;;4996775;28;20103;-70
2023/09/12 10:24:03;;;;;;;17.77;9.32;;;;;;;;;;4991217;28;20771;-68
2023/09/12 10:26:31;;;;;;;16.08;7.95;;;;;;;;;;4994390;28;20411;-69
2023/09/12 10:28:59;;;;;;;19.88;8.57;;;;;;;;;;4999062;28;20444;-69
2023/09/12 10:31:25;;;;;;;11.75;6.90;;;;;;;;;;4997911;28;20042;-69
2023/09/12 10:33:51;;;;;;;15.77;6.95;;;;;;;;;;4990919;28;20072;-69
2023/09/12 10:36:17;;;;;;;12.85;6.15;;;;;;;;;;4993018;28;20073;-69
2023/09/12 10:38:45;;;;;;;12.00;5.93;;;;;;;;;;5000404;28;20038;-68
2023/09/12 10:41:14;;;;;;;10.90;5.50;;;;;;;;;;4998714;28;20478;-69
2023/09/12 10:43:41;;;;;;;13.63;6.20;;;;;;;;;;4987929;28;20042;-69
2023/09/12 10:46:06;;;;;;;9.68;5.57;;;;;;;;;;4997192;28;20053;-69
2023/09/12 10:48:34;;;;;;;11.15;6.20;;;;;;;;;;4990952;28;20042;-69
2023/09/12 10:51:01;;;;;;;11.38;6.80;;;;;;;;;;4993610;28;20045;-69
2023/09/12 10:53:30;;;;;;;12.05;6.43;;;;;;;;;;4992015;28;20734;-69
2023/09/12 10:56:08;;;;;;;11.30;6.32;;;;;;;;;;4965046;28;20046;-68
2023/09/12 10:58:53;;;;;;;10.65;6.07;;;;;;;;;;4973331;28;20046;-69
2023/09/12 11:01:25;;;;;;;16.98;7.50;;;;;;;;;;4979021;28;20617;-69
2023/09/12 11:03:51;;;;;;;11.35;7.43;;;;;;;;;;4992527;28;20550;-69
2023/09/12 11:06:22;;;;;;;13.07;6.88;;;;;;;;;;4991054;28;20045;-69
2023/09/12 11:09:19;;;;;;;15.13;7.45;;;;;;;;;;4990219;28;20037;-68
2023/09/12 11:12:09;;;;;;;13.77;6.50;;;;;;;;;;4988863;28;20034;-69
2023/09/12 11:14:37;;;;;;;10.88;5.97;;;;;;;;;;4999191;28;20026;-68
2023/09/12 11:17:10;;;;;;;10.00;6.43;;;;;;;;;;4991016;28;20041;-69
2023/09/12 11:19:52;;;;;;;12.43;6.40;;;;;;;;;;4988778;28;20137;-69
2023/09/12 11:22:22;;;;;;;11.15;5.78;;;;;;;;;;4989757;28;20045;-68
2023/09/12 11:24:47;;;;;;;13.65;6.57;;;;;;;;;;4995413;28;20531;-69
2023/09/12 11:27:12;;;;;;;10.82;6.95;;;;;;;;;;4987871;28;20092;-69
2023/09/12 11:29:40;;;;;;;12.65;6.72;;;;;;;;;;4996456;28;20034;-69
2023/09/12 11:32:06;;;;;;;15.23;7.10;;;;;;;;;;4991787;28;20029;-69
2023/09/12 11:34:42;;;;;;;17.95;8.75;;;;;;;;;;4993602;28;20046;-69
2023/09/12 11:37:07;;;;;;;16.25;9.65;;;;;;;;;;4993141;28;20452;-69
2023/09/12 11:39:34;;;;;;;15.32;9.45;;;;;;;;;;4986662;28;20571;-69
2023/09/12 11:42:01;;;;;;;14.68;8.65;;;;;;;;;;4991326;28;20618;-69
2023/09/12 11:44:27;;;;;;;12.43;8.18;;;;;;;;;;4992012;28;20114;-69
2023/09/12 11:46:54;;;;;;;11.43;7.40;;;;;;;;;;4995517;28;20030;-69
2023/09/12 11:49:20;;;;;;;13.25;9.50;;;;;;;;;;4995181;28;20059;-69
2023/09/12 11:51:51;;;;;;;15.25;8.63;;;;;;;;;;4989076;28;20120;-69
2023/09/12 11:54:34;;;;;;;13.07;8.43;;;;;;;;;;5000396;28;20069;-69
2023/09/12 11:57:02;;;;;;;12.25;9.00;;;;;;;;;;4990418;28;20133;-69
2023/09/12 11:59:27;;;;;;;17.50;10.45;;;;;;;;;;5001559;28;20036;-68
2023/09/12 12:01:53;;;;;;;20.67;11.25;;;;;;;;;;4981987;28;20046;-69
2023/09/12 12:04:22;;;;;;;19.95;11.35;;;;;;;;;;4996527;28;20041;-69
2023/09/12 12:06:52;;;;;;;22.27;12.07;;;;;;;;;;4992413;28;20073;-69
2023/09/12 12:09:19;;;;;;;20.13;11.65;;;;;;;;;;4991159;28;20038;-69
2023/09/12 12:11:48;;;;;;;17.05;11.25;;;;;;;;;;4995827;28;20037;-69
2023/09/12 12:14:15;;;;;;;19.83;11.05;;;;;;;;;;4997200;28;20049;-68
2023/09/12 12:16:44;;;;;;;22.65;11.90;;;;;;;;;;4993917;28;20046;-69
2023/09/12 12:19:11;;;;;;;18.48;11.10;;;;;;;;;;4987116;28;20429;-69
2023/09/12 12:21:38;;;;;;;19.08;12.00;;;;;;;;;;4989498;28;20042;-69
2023/09/12 12:24:04;;;;;;;19.30;10.85;;;;;;;;;;4988997;28;20040;-69
2023/09/12 12:26:30;;;;;;;16.40;10.10;;;;;;;;;;4991362;28;20022;-69
2023/09/12 12:28:56;;;;;;;15.32;9.77;;;;;;;;;;4997697;28;20707;-69
2023/09/12 12:31:24;;;;;;;12.00;8.38;;;;;;;;;;4984479;28;20735;-69
2023/09/12 12:33:52;;;;;;;13.85;7.90;;;;;;;;;;4991666;28;20044;-70
2023/09/12 12:36:18;;;;;;;12.13;7.18;;;;;;;;;;4992758;28;20050;-69
2023/09/12 12:38:46;;;;;;;12.25;7.10;;;;;;;;;;4996046;28;20038;-69
2023/09/12 12:41:16;;;;;;;9.05;6.07;;;;;;;;;;4990896;28;20141;-69
2023/09/12 12:43:42;;;;;;;11.98;5.85;;;;;;;;;;4982854;28;20125;-69
2023/09/12 12:46:12;;;;;;;11.38;5.72;;;;;;;;;;5001747;28;20042;-69
2023/09/12 12:48:40;;;;;;;8.27;6.25;;;;;;;;;;4996405;28;20455;-69
2023/09/12 12:51:16;;;;;;;12.38;5.63;;;;;;;;;;4992256;28;20069;-69
2023/09/12 12:53:47;;;;;;;11.30;4.97;;;;;;;;;;4991685;28;20624;-68
2023/09/12 12:56:15;;;;;;;9.38;4.50;;;;;;;;;;4990559;28;20030;-69
2023/09/12 12:58:45;;;;;;;7.25;4.05;;;;;;;;;;4991608;28;20675;-69
2023/09/12 13:01:11;;;;;;;6.35;3.67;;;;;;;;;;4996731;28;20046;-69
2023/09/12 13:03:36;;;;;;;9.20;4.05;;;;;;;;;;4992052;28;20096;-69
2023/09/12 13:06:01;;;;;;;7.55;3.60;;;;;;;;;;4998663;28;20096;-69
2023/09/12 13:08:27;;;;;;;5.82;2.92;;;;;;;;;;4992356;28;20036;-69
2023/09/12 13:10:52;;;;;;;6.50;3.35;;;;;;;;;;4989014;28;20045;-69
2023/09/12 13:13:17;;;;;;;7.18;3.22;;;;;;;;;;4989423;28;20039;-69
2023/09/12 13:15:43;;;;;;;5.45;2.85;;;;;;;;;;4995638;28;20038;-69
2023/09/12 13:18:09;;;;;;;6.88;2.58;;;;;;;;;;4996325;28;20030;-69
2023/09/12 13:20:34;;;;;;;5.35;2.80;;;;;;;;;;4994704;28;20022;-69
2023/09/12 13:22:59;;;;;;;6.03;2.58;;;;;;;;;;4998754;28;20049;-70
2023/09/12 13:25:25;;;;;;;6.18;2.80;;;;;;;;;;5000873;28;20531;-70
2023/09/12 13:27:50;;;;;;;7.53;2.85;;;;;;;;;;4994262;28;20128;-69
2023/09/12 13:30:15;;;;;;;8.70;2.63;;;;;;;;;;4976492;28;20139;-69
2023/09/12 13:32:41;;;;;;;4.32;2.40;;;;;;;;;;4988585;28;20274;-70
2023/09/12 13:35:07;;;;;;;5.35;2.85;;;;;;;;;;4998893;28;20030;-70
2023/09/12 13:37:33;;;;;;;5.72;2.53;;;;;;;;;;4995028;28;20045;-70
2023/09/12 13:39:58;;;;;;;5.68;3.28;;;;;;;;;;4986396;28;20058;-70
2023/09/12 13:42:24;;;;;;;9.82;3.25;;;;;;;;;;4997178;28;20431;-70
2023/09/12 13:44:50;;;;;;;6.32;3.05;;;;;;;;;;4988882;28;20898;-70
2023/09/12 13:47:21;;;;;;;4.45;2.95;;;;;;;;;;4992303;28;20014;-70
2023/09/12 13:49:48;;;;;;;7.18;3.25;;;;;;;;;;4999992;28;20420;-70
2023/09/12 13:52:14;;;;;;;4.90;2.88;;;;;;;;;;4988331;28;20903;-70
2023/09/12 13:54:40;;;;;;;5.68;3.00;;;;;;;;;;4999518;28;20038;-70
2023/09/12 13:57:05;;;;;;;4.93;2.83;;;;;;;;;;4994332;28;20026;-70
2023/09/12 13:59:30;;;;;;;5.18;2.80;;;;;;;;;;4992683;28;20037;-70
2023/09/12 14:01:56;;;;;;;6.15;3.25;;;;;;;;;;4995950;28;20034;-70
2023/09/12 14:04:21;;;;;;;5.97;2.60;;;;;;;;;;5000053;28;20034;-70
2023/09/12 14:06:46;;;;;;;5.18;2.55;;;;;;;;;;4994873;28;20052;-70
2023/09/12 14:09:12;;;;;;;6.47;2.92;;;;;;;;;;4992771;28;20117;-70
2023/09/12 14:11:37;;;;;;;5.00;3.00;;;;;;;;;;5002334;28;20153;-70
2023/09/12 14:14:04;;;;;;;4.68;2.60;;;;;;;;;;5003363;28;20014;-70
2023/09/12 14:16:30;;;;;;;7.28;3.80;;;;;;;;;;5004673;28;20060;-70
2023/09/12 14:18:55;;;;;;;5.63;3.10;;;;;;;;;;4998364;28;20053;-70
2023/09/12 14:21:21;;;;;;;4.78;2.90;;;;;;;;;;4996138;28;20045;-70